createdAt,value
2023-02-05T00:00:10.837Z,5.33
2023-02-05T00:02:38.388Z,5.35
2023-02-05T00:05:06.616Z,5.21
2023-02-05T00:07:34.306Z,5.15
2023-02-05T00:10:01.855Z,5.13
2023-02-05T00:12:29.406Z,5.12
2023-02-05T00:14:58.348Z,5.02
2023-02-05T00:17:25.992Z,4.92
2023-02-05T00:19:53.596Z,5.06
2023-02-05T00:22:21.143Z,5.04
2023-02-05T00:24:48.737Z,5.05
2023-02-05T00:27:16.365Z,5.01
2023-02-05T00:29:43.964Z,5.08
2023-02-05T00:32:12.905Z,5.09
2023-02-05T00:34:40.551Z,5.00
2023-02-05T00:37:08.155Z,5.22
2023-02-05T00:39:35.873Z,5.44
2023-02-05T00:42:03.565Z,5.45
2023-02-05T00:44:31.139Z,5.30
2023-02-05T00:46:58.717Z,5.27
2023-02-05T00:49:27.852Z,5.03
2023-02-05T00:51:55.502Z,4.84
2023-02-05T00:54:23.152Z,4.88
2023-02-05T00:56:50.693Z,5.19
2023-02-05T00:59:22.671Z,5.08
2023-02-05T01:01:53.832Z,4.47
2023-02-05T01:04:21.607Z,4.13
2023-02-05T01:06:50.603Z,4.13
2023-02-05T01:09:18.222Z,4.28
2023-02-05T01:11:45.811Z,4.17
2023-02-05T01:14:13.492Z,3.86
2023-02-05T01:16:41.204Z,3.48
2023-02-05T01:19:08.861Z,3.29
2023-02-05T01:21:36.530Z,3.29
2023-02-05T01:24:06.530Z,3.32
2023-02-05T01:26:34.146Z,3.16
2023-02-05T01:29:01.842Z,3.15
2023-02-05T01:31:29.953Z,3.49
2023-02-05T01:33:57.584Z,3.72
2023-02-05T01:36:25.231Z,4.06
2023-02-05T01:38:54.317Z,4.35
2023-02-05T01:41:23.343Z,4.38
2023-02-05T01:44:07.827Z,4.48
2023-02-05T01:46:36.342Z,4.49
2023-02-05T01:49:04.904Z,4.52
2023-02-05T01:51:33.115Z,4.51
2023-02-05T01:54:00.973Z,4.51
2023-02-05T01:56:32.872Z,4.58
2023-02-05T01:59:02.168Z,4.43
2023-02-05T02:01:29.665Z,4.50
2023-02-05T02:03:58.073Z,4.17
2023-02-05T02:06:25.608Z,3.87
2023-02-05T02:08:53.301Z,3.55
2023-02-05T02:11:22.909Z,3.44
2023-02-05T02:13:52.813Z,3.37
2023-02-05T02:16:20.871Z,3.52
2023-02-05T02:18:48.690Z,3.62
2023-02-05T02:21:53.821Z,3.56
2023-02-05T02:24:31.519Z,3.38
2023-02-05T02:27:14.924Z,3.28
2023-02-05T02:29:48.311Z,3.21
2023-02-05T02:32:20.012Z,3.14
2023-02-05T02:34:50.295Z,3.13
2023-02-05T02:37:22.409Z,3.21
2023-02-05T02:39:56.799Z,3.27
2023-02-05T02:42:26.522Z,3.20
2023-02-05T02:44:58.092Z,3.26
2023-02-05T02:47:30.087Z,3.14
2023-02-05T02:50:00.614Z,3.04
2023-02-05T02:52:28.661Z,3.04
2023-02-05T02:55:00.554Z,3.05
2023-02-05T02:57:30.208Z,3.08
2023-02-05T03:00:00.865Z,3.13
2023-02-05T03:02:30.226Z,3.19
2023-02-05T03:04:59.751Z,3.24
2023-02-05T03:07:29.387Z,3.51
2023-02-05T03:10:01.066Z,3.66
2023-02-05T03:12:28.685Z,3.54
2023-02-05T03:14:56.907Z,3.43
2023-02-05T03:17:26.486Z,3.44
2023-02-05T03:19:58.846Z,3.54
2023-02-05T03:22:26.360Z,3.44
2023-02-05T03:24:54.453Z,3.46
2023-02-05T03:27:22.357Z,3.31
2023-02-05T03:29:50.456Z,3.23
2023-02-05T03:32:27.643Z,3.38
2023-02-05T03:35:02.936Z,3.61
2023-02-05T03:37:38.692Z,3.59
2023-02-05T03:40:12.060Z,3.39
2023-02-05T03:42:46.767Z,3.28
2023-02-05T03:45:26.144Z,3.32
2023-02-05T03:48:06.304Z,3.47
2023-02-05T03:50:38.994Z,3.42
2023-02-05T03:53:09.949Z,3.37
2023-02-05T03:55:40.167Z,3.24
2023-02-05T03:58:11.328Z,3.22
2023-02-05T04:00:39.261Z,3.19
2023-02-05T04:03:08.111Z,3.37
2023-02-05T04:05:35.988Z,3.45
2023-02-05T04:08:03.741Z,3.62
2023-02-05T04:10:31.207Z,3.58
2023-02-05T04:13:19.804Z,3.66
2023-02-05T04:15:49.382Z,3.66
2023-02-05T04:18:18.423Z,3.70
2023-02-05T04:20:45.910Z,4.11
2023-02-05T04:23:13.414Z,4.10
2023-02-05T04:25:41.469Z,4.02
2023-02-05T04:28:10.413Z,3.82
2023-02-05T04:30:38.084Z,3.64
2023-02-05T04:33:05.576Z,3.51
2023-02-05T04:35:34.687Z,3.48
2023-02-05T04:38:02.310Z,3.60
2023-02-05T04:40:29.904Z,3.51
2023-02-05T04:42:57.377Z,3.42
2023-02-05T04:45:26.840Z,3.34
2023-02-05T04:47:54.300Z,3.33
2023-02-05T04:50:21.747Z,3.35
2023-02-05T04:52:50.566Z,3.32
2023-02-05T04:55:18.030Z,3.43
2023-02-05T04:57:45.462Z,3.34
2023-02-05T05:00:14.250Z,3.41
2023-02-05T05:02:41.738Z,3.39
2023-02-05T05:05:09.434Z,3.59
2023-02-05T05:07:36.868Z,3.44
2023-02-05T05:10:08.070Z,3.37
2023-02-05T05:12:35.879Z,3.34
2023-02-05T05:15:03.587Z,3.29
2023-02-05T05:17:31.193Z,3.33
2023-02-05T05:19:58.629Z,3.43
2023-02-05T05:22:26.060Z,3.52
2023-02-05T05:24:53.628Z,3.50
2023-02-05T05:27:24.205Z,3.53
2023-02-05T05:29:51.673Z,3.52
2023-02-05T05:32:19.184Z,3.50
2023-02-05T05:34:46.686Z,3.49
2023-02-05T05:37:14.134Z,3.50
2023-02-05T05:39:59.132Z,3.50
2023-02-05T05:42:45.695Z,3.44
2023-02-05T05:45:13.153Z,3.37
2023-02-05T05:47:40.602Z,3.34
2023-02-05T05:50:08.611Z,3.34
2023-02-05T05:52:36.051Z,3.34
2023-02-05T05:55:03.507Z,3.34
2023-02-05T05:57:32.315Z,3.56
2023-02-05T05:59:59.772Z,3.75
2023-02-05T06:02:27.389Z,3.53
2023-02-05T06:04:54.903Z,3.49
2023-02-05T06:07:22.353Z,3.61
2023-02-05T06:09:50.071Z,3.69
2023-02-05T06:12:17.509Z,3.72
2023-02-05T06:14:46.275Z,3.95
2023-02-05T06:17:13.758Z,3.98
2023-02-05T06:19:41.219Z,4.09
2023-02-05T06:22:08.670Z,3.91
2023-02-05T06:24:36.142Z,3.85
2023-02-05T06:27:03.771Z,3.89
2023-02-05T06:29:31.252Z,3.95
2023-02-05T06:32:00.191Z,3.57
2023-02-05T06:34:27.712Z,3.41
2023-02-05T06:36:55.705Z,3.47
2023-02-05T06:39:25.161Z,3.57
2023-02-05T06:41:52.785Z,3.69
2023-02-05T06:44:20.261Z,3.99
2023-02-05T06:46:47.910Z,3.91
2023-02-05T06:49:16.763Z,3.83
2023-02-05T06:51:44.201Z,4.00
2023-02-05T06:54:11.978Z,3.78
2023-02-05T06:56:39.469Z,3.70
2023-02-05T06:59:06.914Z,3.68
2023-02-05T07:01:34.411Z,3.52
2023-02-05T07:04:01.981Z,3.48
2023-02-05T07:06:30.811Z,3.43
2023-02-05T07:08:59.289Z,3.50
2023-02-05T07:11:26.859Z,3.45
2023-02-05T07:13:54.361Z,3.65
2023-02-05T07:16:21.929Z,3.74
2023-02-05T07:18:49.575Z,3.86
2023-02-05T07:21:17.782Z,3.59
2023-02-05T07:23:46.683Z,3.59
2023-02-05T07:26:16.927Z,3.66
2023-02-05T07:28:45.036Z,3.91
2023-02-05T07:31:15.097Z,3.91
2023-02-05T07:33:43.320Z,4.15
2023-02-05T07:36:13.365Z,4.21
2023-02-05T07:38:40.818Z,3.75
2023-02-05T07:41:10.776Z,3.56
2023-02-05T07:43:39.400Z,3.30
2023-02-05T07:46:08.918Z,3.29
2023-02-05T07:48:36.778Z,3.33
2023-02-05T07:51:04.545Z,3.34
2023-02-05T07:53:32.100Z,3.50
2023-02-05T07:56:03.486Z,3.77
2023-02-05T07:58:32.358Z,3.75
2023-02-05T08:01:01.847Z,3.73
2023-02-05T08:03:29.437Z,3.97
2023-02-05T08:05:56.923Z,3.84
2023-02-05T08:08:25.080Z,3.87
2023-02-05T08:10:57.336Z,3.91
2023-02-05T08:13:24.832Z,4.03
2023-02-05T08:15:53.722Z,4.10
2023-02-05T08:18:21.246Z,3.62
2023-02-05T08:20:48.909Z,3.51
2023-02-05T08:23:16.403Z,3.58
2023-02-05T08:25:43.867Z,3.75
2023-02-05T08:28:11.359Z,3.72
2023-02-05T08:30:39.419Z,3.68
2023-02-05T08:33:08.221Z,3.83
2023-02-05T08:35:35.958Z,3.92
2023-02-05T08:38:03.632Z,3.94
2023-02-05T08:40:31.210Z,3.74
2023-02-05T08:43:00.248Z,3.58
2023-02-05T08:45:28.306Z,3.55
2023-02-05T08:47:56.863Z,3.52
2023-02-05T08:50:26.402Z,3.67
2023-02-05T08:52:53.945Z,3.93
2023-02-05T08:55:21.508Z,4.07
2023-02-05T08:57:49.081Z,4.17
2023-02-05T09:00:17.279Z,4.21
2023-02-05T09:02:44.864Z,4.28
2023-02-05T09:05:12.376Z,4.22
2023-02-05T09:07:42.094Z,4.17
2023-02-05T09:10:10.393Z,3.94
2023-02-05T09:12:38.297Z,4.06
2023-02-05T09:15:06.207Z,3.94
2023-02-05T09:17:33.692Z,3.98
2023-02-05T09:20:01.193Z,3.83
2023-02-05T09:22:28.680Z,3.80
2023-02-05T09:24:57.474Z,3.77
2023-02-05T09:27:24.930Z,3.77
2023-02-05T09:29:52.439Z,3.70
2023-02-05T09:32:19.895Z,3.78
2023-02-05T09:34:48.998Z,3.88
2023-02-05T09:37:16.850Z,3.90
2023-02-05T09:40:18.949Z,3.95
2023-02-05T09:42:37.752Z,3.81
2023-02-05T09:45:14.548Z,3.77
2023-02-05T09:47:47.339Z,3.95
2023-02-05T09:50:18.281Z,3.82
2023-02-05T09:52:50.978Z,3.81
2023-02-05T09:55:21.810Z,3.95
2023-02-05T09:57:52.301Z,3.97
2023-02-05T10:00:22.434Z,3.98
2023-02-05T10:02:59.971Z,3.91
2023-02-05T10:05:34.023Z,3.77
2023-02-05T10:08:08.059Z,3.87
2023-02-05T10:10:37.902Z,3.94
2023-02-05T10:13:28.822Z,3.83
2023-02-05T10:16:25.612Z,3.78
2023-02-05T10:19:09.276Z,3.80
2023-02-05T10:21:49.021Z,3.88
2023-02-05T10:24:33.275Z,3.86
2023-02-05T10:27:05.590Z,3.72
2023-02-05T10:29:39.725Z,3.78
2023-02-05T10:32:16.119Z,3.77
2023-02-05T10:34:51.585Z,3.79
2023-02-05T10:37:20.959Z,3.92
2023-02-05T10:39:49.978Z,4.02
2023-02-05T10:42:25.603Z,3.94
2023-02-05T10:45:02.067Z,4.02
2023-02-05T10:47:41.537Z,4.14
2023-02-05T10:50:17.869Z,4.04
2023-02-05T10:52:45.335Z,4.05
2023-02-05T10:55:13.369Z,4.02
2023-02-05T10:57:41.139Z,4.15
2023-02-05T11:00:16.193Z,4.15
2023-02-05T11:02:46.012Z,4.13
2023-02-05T11:05:20.294Z,4.28
2023-02-05T11:07:49.924Z,4.43
2023-02-05T11:10:20.390Z,4.40
2023-02-05T11:12:50.209Z,4.44
2023-02-05T11:15:24.673Z,4.39
2023-02-05T11:17:53.581Z,4.41
2023-02-05T11:20:29.102Z,4.56
2023-02-05T11:23:08.371Z,4.74
2023-02-05T11:25:36.165Z,4.62
2023-02-05T11:28:05.511Z,4.46
2023-02-05T11:30:52.146Z,4.35
2023-02-05T11:33:28.882Z,4.32
2023-02-05T11:35:58.733Z,4.41
2023-02-05T11:38:31.523Z,4.36
2023-02-05T11:41:00.272Z,4.38
2023-02-05T11:43:31.489Z,4.60
2023-02-05T11:46:02.000Z,4.72
2023-02-05T11:48:35.926Z,4.64
2023-02-05T11:51:05.077Z,4.37
2023-02-05T11:53:33.872Z,4.40
2023-02-05T11:56:04.891Z,4.24
2023-02-05T11:58:37.256Z,4.10
2023-02-05T12:01:21.231Z,4.10
2023-02-05T12:03:59.395Z,4.18
2023-02-05T12:06:31.771Z,4.19
2023-02-05T12:08:59.270Z,4.28
2023-02-05T12:11:54.344Z,4.32
2023-02-05T12:14:27.450Z,4.23
2023-02-05T12:17:01.344Z,4.18
2023-02-05T12:19:34.046Z,4.24
2023-02-05T12:22:07.268Z,4.32
2023-02-05T12:24:48.975Z,4.49
2023-02-05T12:27:31.490Z,4.60
2023-02-05T12:30:09.675Z,4.67
2023-02-05T12:32:42.736Z,4.79
2023-02-05T12:35:23.332Z,4.81
2023-02-05T12:37:54.917Z,4.84
2023-02-05T12:40:34.208Z,4.96
2023-02-05T12:43:07.773Z,5.03
2023-02-05T12:45:44.889Z,4.97
2023-02-05T12:48:24.217Z,5.16
2023-02-05T12:51:04.393Z,5.24
2023-02-05T12:53:41.076Z,5.24
2023-02-05T12:56:36.974Z,5.27
2023-02-05T12:59:08.281Z,5.45
2023-02-05T13:01:41.759Z,5.45
2023-02-05T13:04:20.495Z,5.54
2023-02-05T13:10:19.545Z,5.65
2023-02-05T13:12:50.616Z,5.70
2023-02-05T13:15:20.977Z,5.91
2023-02-05T13:17:56.124Z,5.96
2023-02-05T13:20:49.563Z,5.74
2023-02-05T13:23:35.826Z,5.89
2023-02-05T13:26:22.392Z,6.10
2023-02-05T13:28:53.088Z,5.71
2023-02-05T13:31:27.152Z,5.74
2023-02-05T13:33:56.278Z,5.70
2023-02-05T13:37:15.057Z,5.84
2023-02-05T13:39:55.633Z,6.20
2023-02-05T13:42:53.556Z,6.39
2023-02-05T13:45:46.712Z,6.09
2023-02-05T13:48:34.534Z,5.83
2023-02-05T13:51:31.880Z,5.96
2023-02-05T13:54:15.160Z,6.06
2023-02-05T13:56:48.958Z,6.07
2023-02-05T13:59:19.336Z,6.22
2023-02-05T14:01:52.178Z,6.27
2023-02-05T14:04:22.171Z,6.57
2023-02-05T14:06:57.245Z,6.57
2023-02-05T14:09:34.335Z,6.63
2023-02-05T14:12:04.599Z,6.47
2023-02-05T14:14:34.868Z,6.32
2023-02-05T14:17:04.204Z,6.41
2023-02-05T14:19:56.859Z,5.94
2023-02-05T14:22:36.798Z,5.79
2023-02-05T14:25:10.628Z,6.09
2023-02-05T14:27:55.450Z,6.33
2023-02-05T14:30:51.121Z,6.47
2023-02-05T14:33:38.591Z,6.32
2023-02-05T14:36:33.659Z,6.46
2023-02-05T14:39:04.271Z,6.17
2023-02-05T14:41:46.847Z,6.09
2023-02-05T14:44:19.809Z,6.21
2023-02-05T14:46:56.993Z,6.28
2023-02-05T14:49:26.604Z,6.16
2023-02-05T14:51:59.290Z,6.12
2023-02-05T14:54:28.966Z,6.37
2023-02-05T14:57:12.746Z,6.40
2023-02-05T14:59:43.724Z,6.30
2023-02-05T15:02:49.123Z,6.31
2023-02-05T15:05:18.571Z,6.38
2023-02-05T15:07:47.050Z,6.32
2023-02-05T15:10:19.314Z,6.27
2023-02-05T15:13:02.814Z,6.25
2023-02-05T15:15:33.505Z,6.21
2023-02-05T15:18:16.157Z,6.18
2023-02-05T15:20:47.372Z,6.07
2023-02-05T15:23:26.234Z,6.01
2023-02-05T15:25:59.873Z,6.04
2023-02-05T15:28:35.782Z,5.99
2023-02-05T15:31:15.011Z,5.91
2023-02-05T15:33:55.936Z,5.87
2023-02-05T15:36:31.647Z,5.88
2023-02-05T15:39:08.331Z,5.79
2023-02-05T15:41:37.019Z,5.74
2023-02-05T15:44:05.958Z,5.67
2023-02-05T15:46:34.287Z,5.73
2023-02-05T15:49:02.416Z,5.68
2023-02-05T15:51:32.276Z,5.69
2023-02-05T15:54:01.727Z,5.61
2023-02-05T15:56:32.221Z,5.63
2023-02-05T15:59:02.178Z,5.68
2023-02-05T16:01:33.539Z,5.81
2023-02-05T16:04:01.253Z,5.79
2023-02-05T16:06:30.845Z,5.77
2023-02-05T16:08:58.534Z,5.73
2023-02-05T16:11:31.245Z,5.67
2023-02-05T16:14:07.116Z,5.63
2023-02-05T16:16:38.673Z,5.60
2023-02-05T16:19:10.036Z,5.57
2023-02-05T16:21:40.122Z,5.54
2023-02-05T16:24:13.783Z,5.61
2023-02-05T16:26:44.144Z,5.60
2023-02-05T16:29:25.680Z,5.54
2023-02-05T16:32:00.823Z,5.59
2023-02-05T16:34:29.234Z,5.60
2023-02-05T16:37:07.214Z,5.57
2023-02-05T16:39:39.750Z,5.52
2023-02-05T16:42:09.231Z,5.47
2023-02-05T16:44:39.076Z,5.46
2023-02-05T16:47:14.235Z,5.39
2023-02-05T16:49:43.109Z,5.47
2023-02-05T16:52:28.471Z,5.40
2023-02-05T16:54:56.254Z,5.40
2023-02-05T16:57:28.343Z,5.44
2023-02-05T16:59:59.489Z,5.33
2023-02-05T17:02:32.216Z,5.40
2023-02-05T17:05:02.416Z,5.34
2023-02-05T17:07:31.590Z,5.21
2023-02-05T17:10:18.180Z,5.25
2023-02-05T17:12:55.182Z,5.20
2023-02-05T17:15:46.417Z,5.20
2023-02-05T17:18:30.841Z,5.16
2023-02-05T17:21:29.701Z,5.10
2023-02-05T17:24:02.007Z,5.03
2023-02-05T17:26:31.478Z,5.06
2023-02-05T17:29:01.380Z,5.00
2023-02-05T17:31:29.496Z,5.10
2023-02-05T17:33:59.506Z,5.03
2023-02-05T17:36:27.710Z,5.07
2023-02-05T17:38:57.662Z,5.10
2023-02-05T17:41:44.843Z,5.10
2023-02-05T17:44:13.480Z,5.06
2023-02-05T17:46:41.477Z,5.17
2023-02-05T17:49:10.523Z,5.17
2023-02-05T17:51:41.715Z,5.16
2023-02-05T17:54:14.020Z,5.11
2023-02-05T17:56:44.340Z,5.19
2023-02-05T17:59:12.686Z,5.15
2023-02-05T18:01:40.563Z,5.17
2023-02-05T18:04:08.534Z,5.13
2023-02-05T18:06:38.667Z,5.19
2023-02-05T18:09:06.921Z,5.19
2023-02-05T18:11:35.111Z,5.16
2023-02-05T18:14:02.662Z,5.17
2023-02-05T18:16:30.581Z,5.21
2023-02-05T18:18:58.303Z,5.13
2023-02-05T18:21:25.885Z,5.11
2023-02-05T18:23:55.136Z,5.11
2023-02-05T18:26:22.819Z,5.13
2023-02-05T18:28:51.256Z,5.05
2023-02-05T18:31:19.038Z,5.06
2023-02-05T18:33:46.676Z,5.10
2023-02-05T18:36:15.292Z,5.04
2023-02-05T18:38:43.970Z,5.10
2023-02-05T18:41:14.808Z,5.19
2023-02-05T18:43:42.949Z,5.19
2023-02-05T18:46:12.056Z,5.19
2023-02-05T18:48:41.053Z,5.19
2023-02-05T18:51:10.185Z,5.21
2023-02-05T18:53:38.951Z,5.17
2023-02-05T18:56:08.652Z,5.17
2023-02-05T18:58:37.772Z,5.12
2023-02-05T19:01:10.389Z,5.09
2023-02-05T19:03:38.903Z,5.08
2023-02-05T19:06:07.051Z,5.11
2023-02-05T19:08:34.776Z,5.12
2023-02-05T19:11:06.870Z,5.13
2023-02-05T19:13:36.852Z,5.15
2023-02-05T19:16:07.590Z,5.14
2023-02-05T19:18:35.572Z,5.13
2023-02-05T19:21:06.674Z,5.13
2023-02-05T19:23:34.783Z,5.13
2023-02-05T19:26:04.491Z,5.13
2023-02-05T19:28:32.766Z,5.12
2023-02-05T19:31:03.776Z,5.15
2023-02-05T19:33:32.987Z,5.10
2023-02-05T19:36:01.041Z,5.09
2023-02-05T19:38:29.246Z,5.14
2023-02-05T19:40:56.974Z,5.13
2023-02-05T19:43:24.567Z,5.13
2023-02-05T19:45:52.267Z,5.13
2023-02-05T19:48:19.787Z,5.14
2023-02-05T19:50:48.712Z,5.14
2023-02-05T19:53:18.399Z,5.15
2023-02-05T19:55:46.161Z,5.15
2023-02-05T19:58:14.681Z,5.16
2023-02-05T20:00:42.782Z,5.11
2023-02-05T20:03:11.484Z,5.10
2023-02-05T20:05:39.084Z,5.07
2023-02-05T20:08:08.010Z,5.00
2023-02-05T20:10:35.908Z,5.08
2023-02-05T20:13:03.878Z,5.11
2023-02-05T20:15:31.446Z,5.08
2023-02-05T20:17:59.495Z,5.10
2023-02-05T20:20:33.483Z,5.11
2023-02-05T20:23:01.745Z,5.04
2023-02-05T20:25:30.661Z,5.01
2023-02-05T20:27:58.411Z,5.03
2023-02-05T20:30:43.852Z,5.08
2023-02-05T20:33:11.932Z,5.05
2023-02-05T20:35:40.203Z,5.03
2023-02-05T20:38:08.494Z,5.01
2023-02-05T20:40:37.637Z,5.05
2023-02-05T20:43:07.865Z,4.97
2023-02-05T20:45:35.488Z,5.07
2023-02-05T20:48:03.194Z,5.04
2023-02-05T20:50:30.863Z,5.01
2023-02-05T20:53:01.054Z,5.02
2023-02-05T20:55:28.564Z,5.02
2023-02-05T20:57:57.912Z,4.94
2023-02-05T21:00:33.225Z,4.98
2023-02-05T21:03:01.091Z,4.93
2023-02-05T21:05:28.887Z,4.96
2023-02-05T21:07:56.504Z,4.96
2023-02-05T21:10:24.146Z,4.98
2023-02-05T21:12:51.798Z,5.00
2023-02-05T21:15:20.857Z,4.92
2023-02-05T21:17:48.493Z,4.96
2023-02-05T21:20:16.562Z,4.96
2023-02-05T21:22:44.189Z,4.88
2023-02-05T21:25:11.826Z,4.86
2023-02-05T21:27:40.292Z,4.84
2023-02-05T21:30:09.152Z,4.80
2023-02-05T21:32:38.080Z,4.79
2023-02-05T21:35:06.132Z,4.79
2023-02-05T21:37:33.751Z,4.77
2023-02-05T21:40:09.111Z,4.83
2023-02-05T21:42:37.290Z,4.80
2023-02-05T21:45:05.474Z,4.83
2023-02-05T21:47:33.168Z,4.86
2023-02-05T21:50:02.322Z,4.79
2023-02-05T21:52:29.948Z,4.81
2023-02-05T21:54:57.563Z,4.76
2023-02-05T21:57:25.353Z,4.77
2023-02-05T21:59:53.498Z,4.80
2023-02-05T22:02:21.058Z,4.80
2023-02-05T22:04:48.693Z,4.83
2023-02-05T22:07:17.630Z,4.82
2023-02-05T22:09:45.224Z,4.81
2023-02-05T22:12:12.725Z,4.88
2023-02-05T22:14:40.235Z,4.83
2023-02-05T22:17:07.719Z,4.83
2023-02-05T22:19:35.911Z,4.77
2023-02-05T22:22:03.550Z,4.76
2023-02-05T22:24:32.695Z,4.82
2023-02-05T22:27:00.490Z,4.83
2023-02-05T22:29:28.093Z,4.87
2023-02-05T22:31:55.737Z,4.88
2023-02-05T22:34:23.826Z,4.84
2023-02-05T22:36:51.676Z,4.88
2023-02-05T22:39:19.209Z,4.85
2023-02-05T22:41:48.079Z,4.84
2023-02-05T22:44:15.580Z,4.80
2023-02-05T22:46:44.957Z,4.75
2023-02-05T22:49:15.071Z,4.73
2023-02-05T22:51:42.736Z,4.72
2023-02-05T22:54:12.942Z,4.71
2023-02-05T22:56:40.698Z,4.62
2023-02-05T22:59:09.838Z,4.63
2023-02-05T23:01:38.984Z,4.58
2023-02-05T23:04:07.939Z,4.64
2023-02-05T23:06:37.374Z,4.65
2023-02-05T23:09:07.561Z,4.68
2023-02-05T23:11:35.907Z,4.64
2023-02-05T23:14:05.342Z,4.72
2023-02-05T23:16:36.085Z,4.73
2023-02-05T23:19:05.838Z,4.73
2023-02-05T23:21:35.087Z,4.78
2023-02-05T23:24:03.014Z,4.72
2023-02-05T23:26:32.748Z,4.71
2023-02-05T23:29:00.829Z,4.70
2023-02-05T23:31:28.779Z,4.65
2023-02-05T23:33:57.631Z,4.61
2023-02-05T23:36:25.105Z,4.60
2023-02-05T23:38:52.669Z,4.52
2023-02-05T23:41:35.342Z,4.49
2023-02-05T23:44:05.701Z,4.46
2023-02-05T23:46:33.405Z,4.40
2023-02-05T23:49:02.265Z,4.43
2023-02-05T23:51:29.754Z,4.37
2023-02-05T23:53:57.267Z,4.38
2023-02-05T23:56:24.741Z,4.40
2023-02-05T23:58:52.355Z,4.40
